aviador You're here:

KDDC Decoded Metar

DODGE CITY in KS, USA
Report Time2018-01-17 00:52:00
UTC Time2018-01-17 01:17:13
Flight Rules vfr VFR
Wind090° at 03 kt
W.Decomp.*RWY 14: 1.6 kt HW 2.5 kt LCW
RWY 02: 1.4 kt HW 2.6 kt RCW
W.Rank090° ranks 33
Current wind is below 090° avg. (7.5)
Visibility9999 m
Phenomena:N/A
Clouds:N/A
Expected CloudBase > 3,600 ft AGL from Temp-Dew spread
CeilingNone
Temp-11°C (ISA -21)
Dew Point-20°C (48% RH)
AAT-15.7°C
QNH1036 hPa
Density Alt-764 ft
Elevation2,589 ft
Report Wrong Elevation
Raw Report
KDDC 170052Z AUTO 09003KT 10SM CLR M11/M20 A3059 RMK AO2 SLP415
T11111200=

Extra information for KDDC:More info

Metar Taf Metar & Taf Last 4 Metars F.Rules Stats Wind Profile Meteogram Temp Stats Airport Information Weather charts Add Link Nearby VenuesMetar ALERT Operation Metar Decoded Social comments

AIRNAV info for KDDC